Time;durP1;ratioP1;P1;durP2;ratioP2;P2;SDS_P1;SDS_P2;PMS_P1;PMS_P2;Temp;Humidity;BMP_temperature;BMP_pressure;BME280_temperature;BME280_humidity;BME280_pressure;Samples;Min_cycle;Max_cycle;Signal;HPM_P1;HPM_P2
2021/09/01 00:06:43;;;;;;;;;;;25.80;59.00;;;;;;20906560;28;20193;-65
2021/09/01 00:16:46;;;;;;;11.43;5.90;;;25.60;60.50;;;;;;20887209;28;19924;-66
2021/09/01 00:26:47;;;;;;;12.35;5.18;;;25.60;62.30;;;;;;20903770;28;20481;-65
2021/09/01 00:36:49;;;;;;;15.63;6.70;;;25.40;62.80;;;;;;20904224;28;20049;-65
2021/09/01 00:46:52;;;;;;;16.15;6.30;;;25.50;62.60;;;;;;20903723;28;20053;-68
2021/09/01 00:57:00;;;;;;;12.85;5.63;;;25.30;63.90;;;;;;20902961;28;20040;-66
2021/09/01 01:07:03;;;;;;;7.55;4.10;;;24.90;65.60;;;;;;20902425;28;20136;-67
2021/09/01 01:17:11;;;;;;;10.63;4.63;;;24.70;65.50;;;;;;20902333;28;20045;-67
2021/09/01 01:27:35;;;;;;;8.93;4.45;;;24.50;67.20;;;;;;20901780;28;20084;-67
2021/09/01 01:37:40;;;;;;;7.47;3.90;;;24.30;66.70;;;;;;20901916;28;20389;-66
2021/09/01 01:47:43;;;;;;;6.13;2.92;;;23.90;65.70;;;;;;20897611;28;20405;-66
2021/09/01 01:57:52;;;;;;;7.97;3.40;;;23.70;64.10;;;;;;20915050;28;20123;-65
2021/09/01 02:08:02;;;;;;;5.30;3.03;;;23.60;61.60;;;;;;20913825;28;20138;-66
2021/09/01 02:18:13;;;;;;;7.47;2.88;;;23.50;60.20;;;;;;20912996;28;20394;-66
2021/09/01 02:28:20;;;;;;;8.48;3.35;;;23.40;60.60;;;;;;20912725;28;20135;-66
2021/09/01 02:38:27;;;;;;;6.78;3.78;;;23.50;61.10;;;;;;20912028;28;20049;-66
2021/09/01 02:48:32;;;;;;;6.20;3.42;;;23.30;67.40;;;;;;20893744;28;20105;-66
2021/09/01 02:58:37;;;;;;;5.45;2.85;;;;;;;;;;20909864;28;20086;-66
2021/09/01 03:08:41;;;;;;;7.47;2.55;;;;;;;;;;20909878;28;20056;-66
2021/09/01 03:19:00;;;;;;;5.95;3.00;;;;;;;;;;20909189;28;20049;-66
2021/09/01 03:29:14;;;;;;;11.98;3.72;;;;;;;;;;20907781;28;20045;-66
2021/09/01 03:39:21;;;;;;;20.92;5.82;;;;;;;;;;20907844;28;20053;-67
2021/09/01 03:49:37;;;;;;;19.55;5.32;;;;;;;;;;20907216;28;20105;-66
2021/09/01 03:59:49;;;;;;;10.20;3.65;;;;;;;;;;20906510;28;20064;-66
2021/09/01 04:09:57;;;;;;;8.80;3.20;;;;;;;;;;20905778;28;20053;-67
2021/09/01 04:20:07;;;;;;;9.05;3.20;;;;;;;;;;20906116;28;20120;-66
2021/09/01 04:30:16;;;;;;;6.50;2.80;;;;;;;;;;20905240;28;20075;-65
2021/09/01 04:40:23;;;;;;;7.32;3.10;;;;;;;;;;20904670;28;20053;-66
2021/09/01 04:50:31;;;;;;;5.72;2.35;;;;;;;;;;20904189;28;20121;-66
2021/09/01 05:00:35;;;;;;;6.22;2.60;;;;;;;;;;20903260;28;20133;-66
2021/09/01 05:10:37;;;;;;;5.60;2.92;;;;;;;;;;20902440;28;20397;-65
2021/09/01 05:20:39;;;;;;;3.67;2.37;;;;;;;;;;20900118;28;20053;-65
2021/09/01 05:30:42;;;;;;;5.40;1.70;;;;;;;;;;20883653;28;20378;-65
2021/09/01 05:40:46;;;;;;;3.35;1.73;;;;;;;;;;20900614;28;20139;-65
2021/09/01 05:50:51;;;;;;;4.05;1.80;;;;;;;;;;20898952;28;20052;-66
2021/09/01 06:00:56;;;;;;;4.10;2.00;;;;;;;;;;20899714;28;20049;-68
2021/09/01 06:10:58;;;;;;;4.75;2.63;;;;;;;;;;20897919;28;20446;-67
2021/09/01 06:21:03;;;;;;;3.33;1.95;;;;;;;;;;20897773;28;20101;-65
2021/09/01 06:31:06;;;;;;;6.35;2.50;;;;;;;;;;20892305;28;20045;-66
2021/09/01 06:41:11;;;;;;;5.15;2.00;;;;;;;;;;20910727;28;20053;-65
2021/09/01 06:51:13;;;;;;;5.13;2.47;;;;;;;;;;20911156;28;20586;-65
2021/09/01 07:01:16;;;;;;;5.00;2.35;;;;;;;;;;20910259;28;20053;-65
2021/09/01 07:11:18;;;;;;;6.40;2.50;;;;;;;;;;20909143;28;20053;-65
2021/09/01 07:21:20;;;;;;;6.45;2.85;;;;;;;;;;20909360;28;20060;-65
2021/09/01 07:31:24;;;;;;;5.72;1.85;;;;;;;;;;20908509;28;20045;-63
2021/09/01 07:41:27;;;;;;;5.37;2.00;;;;;;;;;;20906741;28;20569;-64
2021/09/01 07:51:29;;;;;;;6.23;1.93;;;;;;;;;;20907269;28;20098;-65
2021/09/01 08:01:34;;;;;;;7.78;1.92;;;;;;;;;;20905664;28;20049;-64
2021/09/01 08:11:37;;;;;;;3.58;1.90;;;;;;;;;;20905328;28;20057;-64
2021/09/01 08:21:40;;;;;;;5.03;1.87;;;;;;;;;;20906064;28;20469;-65
2021/09/01 08:31:44;;;;;;;6.75;2.30;;;;;;;;;;20905240;28;20097;-65
2021/09/01 08:41:47;;;;;;;6.40;2.83;;;;;;;;;;20904404;28;20128;-65
2021/09/01 08:51:51;;;;;;;5.70;2.58;;;;;;;;;;20902391;28;20049;-67
2021/09/01 09:01:55;;;;;;;4.77;2.23;;;;;;;;;;20885137;28;20049;-66
2021/09/01 09:11:58;;;;;;;2.70;1.55;;;;;;;;;;20902233;28;20416;-65
2021/09/01 09:22:04;;;;;;;4.82;1.75;;;;;;;;;;20902330;28;20045;-66
2021/09/01 09:32:10;;;;;;;5.05;2.38;;;;;;;;;;20901332;28;20060;-67
2021/09/01 09:42:29;;;;;;;3.85;1.80;;;;;;;;;;20900764;28;20477;-66
2021/09/01 09:52:36;;;;;;;8.50;2.55;;;;;;;;;;20900009;28;20427;-66
2021/09/01 10:02:41;;;;;;;2.65;1.50;;;;;;;;;;20906371;28;20409;-66
2021/09/01 10:12:45;;;;;;;4.68;1.48;;;;;;;;;;20913179;28;20045;-59
2021/09/01 10:23:05;;;;;;;3.22;1.42;;;;;;;;;;20913154;28;20141;-56
2021/09/01 10:33:27;;;;;;;4.28;1.73;;;;;;;;;;20911864;28;20460;-57
2021/09/01 10:43:29;;;;;;;4.90;1.75;;;;;;;;;;20911022;28;20066;-56
2021/09/01 10:53:37;;;;;;;5.03;2.00;;;;;;;;;;20910469;28;20049;-57
2021/09/01 11:03:41;;;;;;;3.55;1.92;;;;;;;;;;20910037;28;20044;-55
2021/09/01 11:13:43;;;;;;;6.32;2.72;;;;;;;;;;20907855;28;20057;-58
2021/09/01 11:23:49;;;;;;;4.70;2.67;;;;;;;;;;20908692;28;20048;-62
2021/09/01 11:33:54;;;;;;;8.00;2.95;;;;;;;;;;20909032;28;20477;-62
2021/09/01 11:43:56;;;;;;;9.10;2.80;;;;;;;;;;20890177;28;20056;-61
2021/09/01 11:53:59;;;;;;;5.38;3.03;;;;;;;;;;20907363;28;20072;-63
2021/09/01 12:04:01;;;;;;;8.68;3.15;;;;;;;;;;20907062;28;20142;-62
2021/09/01 12:14:04;;;;;;;6.38;3.00;;;;;;;;;;20905586;28;20094;-62
2021/09/01 12:24:09;;;;;;;7.55;3.63;;;;;;;;;;20905870;28;20049;-62
2021/09/01 12:34:13;;;;;;;7.40;3.28;;;;;;;;;;20905331;28;20045;-66
2021/09/01 12:44:17;;;;;;;5.57;3.30;;;;;;;;;;20904088;28;20049;-61
2021/09/01 12:54:22;;;;;;;5.05;3.35;;;;;;;;;;20903494;28;20147;-64
2021/09/01 13:04:24;;;;;;;7.88;3.55;;;;;;;;;;20902617;28;20386;-62
2021/09/01 13:14:27;;;;;;;7.60;3.25;;;;;;;;;;20884734;28;20053;-63
2021/09/01 13:24:30;;;;;;;6.10;2.95;;;;;;;;;;20901637;28;20045;-64
2021/09/01 13:34:34;;;;;;;4.65;3.45;;;;;;;;;;20899833;28;20075;-63
2021/09/01 13:44:40;;;;;;;8.60;3.03;;;;;;;;;;20883168;28;20045;-62
2021/09/01 13:54:42;;;;;;;6.97;3.72;;;;;;;;;;20900000;28;20480;-62
2021/09/01 14:04:45;;;;;;;5.35;3.50;;;;;;;;;;20900227;28;20132;-63
2021/09/01 14:14:47;;;;;;;7.00;3.78;;;;;;;;;;20882363;28;20060;-63
2021/09/01 14:24:50;;;;;;;6.15;3.72;;;;;;;;;;20899423;28;20468;-63
2021/09/01 14:34:53;;;;;;;8.88;4.55;;;;;;;;;;20898460;28;20140;-62
2021/09/01 14:44:55;;;;;;;8.52;4.13;;;;;;;;;;20897834;28;20477;-62
2021/09/01 14:54:57;;;;;;;;;;;;;;;;;;20893816;28;20049;-65
2021/09/01 15:04:59;;;;;;;6.97;4.67;;;;;;;;;;20910828;28;19921;-62
2021/09/01 15:15:01;;;;;;;;;;;;;;;;;;20909583;28;20159;-63
2021/09/01 15:25:04;;;;;;;8.63;5.07;;;;;;;;;;20891965;28;19920;-62
2021/09/01 15:35:06;;;;;;;8.80;4.45;;;;;;;;;;20891442;28;20406;-63
2021/09/01 15:45:08;;;;;;;8.65;4.53;;;;;;;;;;20908273;28;20113;-62
2021/09/01 15:55:10;;;;;;;5.63;3.45;;;;;;;;;;20906986;28;20090;-62
2021/09/01 16:05:13;;;;;;;5.38;3.20;;;;;;;;;;20906542;28;20461;-63
2021/09/01 16:15:17;;;;;;;5.20;3.45;;;;;;;;;;20905766;28;20071;-62
2021/09/01 16:25:20;;;;;;;5.03;3.15;;;;;;;;;;20905366;28;20141;-63
2021/09/01 16:35:22;;;;;;;4.63;3.15;;;;;;;;;;20904787;28;20094;-62
2021/09/01 16:45:25;;;;;;;5.07;2.30;;;;;;;;;;20904029;28;20088;-62
2021/09/01 16:55:30;;;;;;;4.97;2.60;;;;;;;;;;20886766;28;20131;-64
2021/09/01 17:05:32;;;;;;;5.85;3.10;;;;;;;;;;20902657;28;20120;-63
2021/09/01 17:15:34;;;;;;;;;;;;;;;;;;20901455;28;20478;-62
2021/09/01 17:25:41;;;;;;;5.38;2.60;;;;;;;;;;20901926;28;19920;-64
2021/09/01 17:35:44;;;;;;;2.78;1.88;;;;;;;;;;20901265;28;20128;-62
2021/09/01 17:45:46;;;;;;;3.85;1.60;;;;;;;;;;20882639;28;20110;-61
2021/09/01 17:55:49;;;;;;;3.73;1.70;;;;;;;;;;20899617;28;20049;-63
2021/09/01 18:05:51;;;;;;;2.72;1.63;;;;;;;;;;20899911;28;20445;-63
2021/09/01 18:15:54;;;;;;;2.77;1.73;;;;;;;;;;20898610;28;20041;-62
2021/09/01 18:25:56;;;;;;;4.50;2.45;;;;;;;;;;20908692;28;20049;-63
2021/09/01 18:35:59;;;;;;;4.00;2.17;;;;;;;;;;20912465;28;20045;-62
2021/09/01 18:46:01;;;;;;;3.75;1.73;;;;;;;;;;20912147;28;20053;-63
2021/09/01 18:56:02;;;;;;;5.75;3.30;;;;;;;;;;20911386;28;20557;-63
2021/09/01 19:06:12;;;;;;;3.13;2.13;;;;;;;;;;20910289;28;20101;-63
2021/09/01 19:16:14;;;;;;;7.68;2.92;;;;;;;;;;20908827;28;20084;-62
2021/09/01 19:26:15;;;;;;;4.65;2.30;;;;;;;;;;20909596;28;20490;-61
2021/09/01 19:36:16;;;;;;;5.05;2.25;;;;;;;;;;20908154;28;20053;-62
2021/09/01 19:46:18;;;;;;;4.28;2.10;;;;;;;;;;20890926;28;20586;-62
2021/09/01 19:56:19;;;;;;;4.32;2.70;;;;;;;;;;20906940;28;20148;-63
2021/09/01 20:06:21;;;;;;;6.55;2.90;;;;;;;;;;20906363;28;20052;-62
2021/09/01 20:16:24;;;;;;;7.80;2.90;;;;;;;;;;20888072;28;20041;-62
2021/09/01 20:26:25;;;;;;;6.40;2.58;;;;;;;;;;20904955;28;20523;-63
2021/09/01 20:36:27;;;;;;;3.83;2.35;;;;;;;;;;20904040;28;20056;-65
2021/09/01 20:46:33;;;;;;;7.95;2.78;;;;;;;;;;20903833;28;20061;-64
2021/09/01 20:56:39;;;;;;;5.45;3.20;;;;;;;;;;20904722;28;20041;-64
2021/09/01 21:06:41;;;;;;;5.85;2.70;;;;;;;;;;20903707;28;20057;-64
2021/09/01 21:16:43;;;;;;;4.63;2.73;;;;;;;;;;20902377;28;20077;-63
2021/09/01 21:26:45;;;;;;;;;;;;;;;;;;20902337;28;20506;-63
2021/09/01 21:36:48;;;;;;;6.20;2.72;;;;;;;;;;20901034;28;20318;-64
2021/09/01 21:46:51;;;;;;;3.63;2.55;;;;;;;;;;20900647;28;20071;-63
2021/09/01 21:56:53;;;;;;;5.68;2.75;;;;;;;;;;20904599;28;20076;-63
2021/09/01 22:06:55;;;;;;;8.10;2.87;;;;;;;;;;20914287;28;20088;-63
2021/09/01 22:16:57;;;;;;;3.43;2.43;;;;;;;;;;20913298;28;20045;-62
2021/09/01 22:26:59;;;;;;;5.50;2.30;;;;;;;;;;20913643;28;20385;-64
2021/09/01 22:37:01;;;;;;;3.70;2.07;;;;;;;;;;20912826;28;20453;-63
2021/09/01 22:47:03;;;;;;;3.47;1.92;;;;;;;;;;20911131;28;20148;-63
2021/09/01 22:57:05;;;;;;;3.13;1.73;;;;;;;;;;20911446;28;20049;-63
2021/09/01 23:07:07;;;;;;;15.55;2.33;;;;;;;;;;20909110;28;20053;-64
2021/09/01 23:17:09;;;;;;;5.83;1.97;;;;;;;;;;20909860;28;20409;-62
2021/09/01 23:27:11;;;;;;;5.33;2.97;;;;;;;;;;20909699;28;20049;-63
2021/09/01 23:37:13;;;;;;;3.67;2.13;;;;;;;;;;20909821;28;20071;-64
2021/09/01 23:47:15;;;;;;;3.03;1.43;;;;;;;;;;20908590;28;20053;-63
2021/09/01 23:57:17;;;;;;;3.63;1.83;;;;;;;;;;20907530;28;20432;-63
